createdAt,value
2018-08-20T00:01:49.001Z,3.10
2018-08-20T00:04:17.266Z,3.30
2018-08-20T00:06:57.677Z,3.27
2018-08-20T00:09:38.114Z,3.33
2018-08-20T00:12:08.391Z,3.17
2018-08-20T00:14:36.835Z,3.17
2018-08-20T00:17:05.332Z,3.30
2018-08-20T00:19:33.676Z,3.30
2018-08-20T00:22:01.864Z,3.43
2018-08-20T00:24:29.964Z,3.27
2018-08-20T00:26:59.596Z,3.00
2018-08-20T00:29:27.885Z,3.27
2018-08-20T00:31:56.323Z,3.10
2018-08-20T00:34:24.494Z,3.00
2018-08-20T00:36:52.708Z,3.00
2018-08-20T00:39:21.012Z,2.80
2018-08-20T00:41:49.606Z,3.10
2018-08-20T00:44:17.770Z,2.83
2018-08-20T00:46:46.391Z,3.23
2018-08-20T00:49:15.854Z,3.10
2018-08-20T00:51:44.426Z,3.07
2018-08-20T00:54:12.684Z,3.33
2018-08-20T00:56:41.196Z,3.00
2018-08-20T00:59:09.699Z,3.00
2018-08-20T01:01:37.828Z,3.17
2018-08-20T01:04:06.141Z,3.33
2018-08-20T01:06:34.319Z,3.20
2018-08-20T01:09:03.170Z,3.10
2018-08-20T01:11:31.778Z,3.37
2018-08-20T01:14:00.137Z,3.20
2018-08-20T01:16:28.333Z,3.50
2018-08-20T01:18:56.721Z,3.13
2018-08-20T01:21:25.020Z,3.03
2018-08-20T01:23:53.349Z,2.87
2018-08-20T01:26:21.473Z,3.20
2018-08-20T01:28:49.641Z,3.10
2018-08-20T01:31:17.997Z,3.00
2018-08-20T01:33:46.363Z,2.93
2018-08-20T01:36:15.299Z,3.23
2018-08-20T01:38:43.679Z,3.13
2018-08-20T01:41:11.857Z,3.10
2018-08-20T01:43:40.123Z,3.00
2018-08-20T01:46:08.802Z,3.10
2018-08-20T01:48:37.029Z,3.40
2018-08-20T01:51:05.201Z,3.27
2018-08-20T01:53:33.477Z,3.20
2018-08-20T01:56:01.821Z,2.77
2018-08-20T01:58:30.136Z,3.10
2018-08-20T02:00:58.309Z,3.37
2018-08-20T02:03:26.859Z,2.90
2018-08-20T02:05:55.035Z,3.10
2018-08-20T02:08:23.129Z,3.30
2018-08-20T02:10:51.652Z,3.30
2018-08-20T02:13:20.758Z,2.97
2018-08-20T02:15:49.317Z,3.50
2018-08-20T02:18:17.627Z,3.13
2018-08-20T02:20:45.777Z,3.53
2018-08-20T02:23:14.421Z,3.23
2018-08-20T02:25:42.563Z,3.33
2018-08-20T02:28:10.761Z,3.27
2018-08-20T02:30:39.026Z,3.00
2018-08-20T02:33:07.633Z,3.67
2018-08-20T02:35:36.125Z,3.10
2018-08-20T02:38:04.848Z,3.50
2018-08-20T02:40:33.706Z,3.43
2018-08-20T02:43:02.012Z,3.50
2018-08-20T02:45:30.632Z,3.47
2018-08-20T02:47:59.004Z,3.10
2018-08-20T02:50:27.162Z,3.17
2018-08-20T02:52:55.484Z,3.70
2018-08-20T02:55:23.894Z,3.50
2018-08-20T02:57:52.012Z,3.67
2018-08-20T03:00:20.630Z,3.30
2018-08-20T03:02:48.936Z,3.23
2018-08-20T03:05:18.121Z,3.33
2018-08-20T03:07:46.306Z,3.50
2018-08-20T03:10:14.772Z,3.60
2018-08-20T03:12:43.329Z,3.33
2018-08-20T03:15:11.716Z,3.50
2018-08-20T03:17:40.425Z,3.33
2018-08-20T03:20:08.877Z,3.30
2018-08-20T03:22:37.046Z,3.53
2018-08-20T03:25:06.115Z,4.07
2018-08-20T03:27:34.872Z,3.30
2018-08-20T03:30:04.553Z,3.17
2018-08-20T03:32:32.813Z,3.63
2018-08-20T03:35:01.292Z,3.30
2018-08-20T03:37:33.357Z,3.57
2018-08-20T03:40:02.169Z,3.60
2018-08-20T03:42:30.407Z,3.10
2018-08-20T03:44:58.839Z,3.57
2018-08-20T03:47:27.237Z,3.20
2018-08-20T03:49:55.672Z,3.60
2018-08-20T03:52:24.777Z,2.90
2018-08-20T03:54:53.705Z,4.20
2018-08-20T03:57:22.777Z,3.57
2018-08-20T03:59:50.990Z,3.70
2018-08-20T04:02:19.067Z,3.97
2018-08-20T04:04:47.240Z,3.90
2018-08-20T04:07:15.344Z,3.37
2018-08-20T04:09:43.489Z,3.30
2018-08-20T04:12:11.922Z,3.40
2018-08-20T04:14:40.068Z,4.50
2018-08-20T04:17:08.461Z,3.83
2018-08-20T04:19:36.613Z,4.20
2018-08-20T04:22:04.804Z,3.70
2018-08-20T04:24:33.204Z,3.73
2018-08-20T04:27:01.818Z,3.53
2018-08-20T04:29:30.102Z,3.83
2018-08-20T04:31:58.512Z,3.10
2018-08-20T04:34:27.108Z,3.70
2018-08-20T04:36:55.224Z,3.40
2018-08-20T04:39:23.345Z,3.80
2018-08-20T04:41:51.640Z,3.80
2018-08-20T04:44:19.724Z,3.60
2018-08-20T04:46:47.890Z,4.10
2018-08-20T04:49:16.025Z,3.83
2018-08-20T04:51:44.207Z,3.77
2018-08-20T04:54:12.526Z,4.07
2018-08-20T04:56:40.902Z,4.10
2018-08-20T04:59:08.970Z,4.37
2018-08-20T05:01:37.290Z,4.03
2018-08-20T05:04:05.768Z,4.07
2018-08-20T05:06:34.032Z,3.77
2018-08-20T05:09:02.331Z,3.87
2018-08-20T05:11:30.641Z,3.90
2018-08-20T05:13:58.849Z,4.00
2018-08-20T05:16:26.999Z,4.20
2018-08-20T05:18:55.244Z,3.40
2018-08-20T05:21:23.450Z,4.00
2018-08-20T05:23:51.585Z,4.27
2018-08-20T05:26:20.369Z,4.20
2018-08-20T05:28:48.555Z,4.00
2018-08-20T05:31:16.692Z,3.77
2018-08-20T05:33:44.858Z,4.20
2018-08-20T05:36:13.093Z,4.50
2018-08-20T05:38:41.158Z,4.30
2018-08-20T05:41:09.375Z,4.00
2018-08-20T05:43:37.502Z,4.50
2018-08-20T05:46:06.085Z,3.90
2018-08-20T05:48:34.344Z,4.17
2018-08-20T05:51:02.501Z,4.33
2018-08-20T05:53:30.826Z,5.30
2018-08-20T05:55:59.041Z,5.60
2018-08-20T05:58:27.235Z,4.60
2018-08-20T06:00:55.662Z,4.43
2018-08-20T06:03:23.921Z,3.90
2018-08-20T06:05:52.321Z,3.83
2018-08-20T06:08:20.464Z,4.70
2018-08-20T06:10:48.797Z,4.20
2018-08-20T06:13:17.064Z,3.97
2018-08-20T06:15:45.252Z,4.63
2018-08-20T06:18:13.468Z,5.00
2018-08-20T06:20:41.750Z,4.60
2018-08-20T06:23:10.110Z,4.00
2018-08-20T06:25:39.000Z,4.65
2018-08-20T06:28:07.254Z,5.00
2018-08-20T06:30:35.501Z,4.05
2018-08-20T06:33:04.444Z,7.58
2018-08-20T06:35:32.572Z,5.10
2018-08-20T06:38:01.079Z,4.95
2018-08-20T06:40:29.982Z,4.60
2018-08-20T06:42:58.129Z,5.35
2018-08-20T06:45:26.221Z,4.62
2018-08-20T06:47:54.389Z,5.62
2018-08-20T06:50:22.653Z,5.08
2018-08-20T06:52:50.811Z,4.67
2018-08-20T06:55:18.901Z,6.55
2018-08-20T06:57:47.106Z,5.45
2018-08-20T07:00:15.451Z,5.72
2018-08-20T07:02:43.542Z,7.05
2018-08-20T07:05:18.365Z,6.17
2018-08-20T07:07:46.678Z,8.25
2018-08-20T07:10:14.979Z,6.15
2018-08-20T07:12:43.236Z,7.30
2018-08-20T07:15:14.346Z,6.00
2018-08-20T07:17:42.636Z,6.40
2018-08-20T07:20:12.954Z,6.35
2018-08-20T07:22:41.200Z,7.35
2018-08-20T07:25:09.455Z,5.60
2018-08-20T07:27:38.000Z,6.22
2018-08-20T07:30:09.751Z,8.18
2018-08-20T07:32:37.967Z,7.00
2018-08-20T07:35:06.577Z,7.65
2018-08-20T07:37:35.435Z,8.38
2018-08-20T07:40:05.139Z,6.90
2018-08-20T07:42:33.448Z,7.35
2018-08-20T07:45:01.557Z,5.87
2018-08-20T07:47:29.706Z,5.78
2018-08-20T07:49:57.909Z,6.40
2018-08-20T07:52:26.071Z,6.22
2018-08-20T07:54:54.193Z,6.12
2018-08-20T07:57:22.364Z,6.42
2018-08-20T07:59:50.487Z,6.83
2018-08-20T08:02:18.728Z,6.47
2018-08-20T08:04:46.925Z,5.33
2018-08-20T08:07:15.208Z,5.87
2018-08-20T08:09:43.408Z,6.75
2018-08-20T08:12:11.584Z,6.40
2018-08-20T08:14:39.780Z,5.90
2018-08-20T08:17:08.723Z,6.55
2018-08-20T08:19:36.937Z,9.45
2018-08-20T08:22:05.307Z,6.42
2018-08-20T08:24:33.562Z,7.50
2018-08-20T08:27:02.707Z,7.22
2018-08-20T08:29:30.968Z,7.42
2018-08-20T08:31:59.433Z,6.25
2018-08-20T08:34:27.656Z,5.80
2018-08-20T08:36:55.850Z,8.00
2018-08-20T08:39:24.000Z,6.78
2018-08-20T08:41:52.216Z,6.95
2018-08-20T08:44:20.410Z,6.87
2018-08-20T08:46:48.656Z,6.80
2018-08-20T08:49:16.938Z,6.55
2018-08-20T08:51:45.117Z,7.28
2018-08-20T08:54:13.390Z,6.70
2018-08-20T08:56:41.631Z,7.12
2018-08-20T08:59:10.130Z,7.00
2018-08-20T09:01:38.296Z,7.12
2018-08-20T09:04:06.869Z,6.62
2018-08-20T09:06:35.043Z,6.78
2018-08-20T09:09:03.705Z,6.83
2018-08-20T09:11:31.915Z,6.75
2018-08-20T09:14:00.049Z,7.40
2018-08-20T09:16:28.190Z,6.42
2018-08-20T09:18:56.275Z,5.85
2018-08-20T09:21:24.501Z,5.47
2018-08-20T09:23:52.745Z,5.33
2018-08-20T09:26:21.139Z,6.05
2018-08-20T09:28:49.289Z,4.25
2018-08-20T09:31:17.519Z,4.47
2018-08-20T09:33:45.730Z,4.42
2018-08-20T09:36:13.869Z,3.85
2018-08-20T09:38:41.983Z,4.58
2018-08-20T09:41:10.230Z,3.95
2018-08-20T09:43:38.491Z,4.70
2018-08-20T09:46:06.741Z,4.10
2018-08-20T09:48:34.976Z,4.92
2018-08-20T09:51:03.159Z,4.47
2018-08-20T09:53:31.305Z,4.17
2018-08-20T09:55:59.605Z,4.42
2018-08-20T09:58:27.862Z,4.42
2018-08-20T10:00:56.028Z,4.50
2018-08-20T10:03:24.219Z,4.72
2018-08-20T10:05:52.551Z,4.80
2018-08-20T10:08:20.815Z,3.95
2018-08-20T10:10:48.944Z,4.70
2018-08-20T10:13:17.222Z,5.35
2018-08-20T10:15:45.442Z,4.92
2018-08-20T10:18:14.338Z,5.97
2018-08-20T10:20:42.545Z,5.30
2018-08-20T10:23:10.667Z,5.85
2018-08-20T10:25:38.782Z,5.08
2018-08-20T10:28:07.032Z,5.58
2018-08-20T10:30:35.306Z,5.50
2018-08-20T10:33:03.456Z,4.83
2018-08-20T10:35:31.577Z,5.00
2018-08-20T10:38:00.044Z,4.63
2018-08-20T10:40:28.248Z,4.53
2018-08-20T10:42:56.403Z,4.33
2018-08-20T10:45:30.251Z,3.70
2018-08-20T10:47:58.423Z,4.10
2018-08-20T10:50:26.587Z,4.10
2018-08-20T10:52:54.711Z,4.65
2018-08-20T10:55:22.879Z,3.80
2018-08-20T10:57:50.986Z,4.00
2018-08-20T11:00:19.194Z,3.72
2018-08-20T11:02:47.272Z,4.40
2018-08-20T11:05:17.774Z,4.28
2018-08-20T11:07:46.269Z,4.10
2018-08-20T11:10:14.581Z,4.90
2018-08-20T11:12:42.646Z,5.03
2018-08-20T11:15:11.631Z,4.50
2018-08-20T11:17:39.875Z,5.53
2018-08-20T11:20:13.268Z,4.85
2018-08-20T11:22:41.885Z,5.15
2018-08-20T11:25:11.017Z,5.42
2018-08-20T11:27:39.336Z,4.78
2018-08-20T11:30:09.960Z,4.65
2018-08-20T11:32:38.227Z,4.17
2018-08-20T11:35:07.249Z,4.47
2018-08-20T11:37:35.445Z,4.72
2018-08-20T11:40:04.380Z,5.40
2018-08-20T11:42:32.614Z,5.15
2018-08-20T11:45:00.785Z,5.65
2018-08-20T11:47:28.977Z,5.35
2018-08-20T11:49:57.735Z,4.87
2018-08-20T11:52:25.969Z,4.83
2018-08-20T11:54:54.138Z,4.60
2018-08-20T11:57:22.254Z,4.80
2018-08-20T11:59:50.360Z,3.98
2018-08-20T12:02:18.677Z,4.30
2018-08-20T12:04:46.857Z,3.75
2018-08-20T12:07:15.197Z,3.70
2018-08-20T12:09:43.389Z,4.03
2018-08-20T12:12:11.538Z,4.05
2018-08-20T12:14:40.737Z,3.65
2018-08-20T12:17:08.930Z,3.30
2018-08-20T12:19:36.991Z,3.50
2018-08-20T12:22:05.254Z,3.70
2018-08-20T12:24:33.532Z,4.00
2018-08-20T12:27:01.739Z,3.50
2018-08-20T12:29:29.883Z,3.05
2018-08-20T12:31:58.140Z,3.37
2018-08-20T12:34:26.293Z,3.75
2018-08-20T12:36:54.377Z,2.70
2018-08-20T12:39:22.658Z,3.62
2018-08-20T12:41:50.810Z,3.70
2018-08-20T12:44:18.951Z,3.27
2018-08-20T12:46:47.161Z,4.22
2018-08-20T12:49:15.283Z,3.90
2018-08-20T12:51:43.441Z,3.27
2018-08-20T12:54:11.568Z,3.75
2018-08-20T12:56:40.451Z,3.60
2018-08-20T12:59:08.745Z,2.83
2018-08-20T13:01:36.935Z,4.37
2018-08-20T13:04:05.181Z,3.50
2018-08-20T13:06:33.303Z,3.70
2018-08-20T13:09:01.543Z,3.80
2018-08-20T13:11:29.734Z,3.83
2018-08-20T13:13:57.851Z,3.47
2018-08-20T13:16:26.119Z,3.72
2018-08-20T13:18:54.240Z,3.60
2018-08-20T13:21:22.381Z,4.22
2018-08-20T13:23:50.526Z,3.58
2018-08-20T13:26:18.668Z,3.37
2018-08-20T13:28:49.792Z,3.40
2018-08-20T13:31:17.952Z,4.10
2018-08-20T13:33:46.234Z,3.70
2018-08-20T13:36:14.472Z,3.60
2018-08-20T13:38:42.694Z,4.33
2018-08-20T13:41:10.787Z,3.80
2018-08-20T13:43:39.000Z,3.50
2018-08-20T13:46:07.236Z,3.85
2018-08-20T13:48:35.530Z,3.62
2018-08-20T13:51:03.728Z,3.87
2018-08-20T13:53:31.930Z,4.17
2018-08-20T13:56:00.084Z,3.80
2018-08-20T13:58:28.330Z,3.52
2018-08-20T14:00:56.581Z,3.00
2018-08-20T14:03:24.866Z,3.15
2018-08-20T14:05:52.957Z,2.62
2018-08-20T14:08:21.335Z,2.40
2018-08-20T14:10:49.463Z,2.70
2018-08-20T14:13:17.608Z,2.60
2018-08-20T14:15:45.957Z,2.40
2018-08-20T14:18:14.161Z,2.30
2018-08-20T14:21:25.344Z,2.55
2018-08-20T14:23:53.590Z,3.02
2018-08-20T14:26:21.779Z,2.25
2018-08-20T14:28:50.014Z,2.42
2018-08-20T14:31:18.305Z,2.20
2018-08-20T14:33:46.557Z,2.60
2018-08-20T14:36:14.693Z,2.37
2018-08-20T14:38:42.879Z,2.25
2018-08-20T14:41:11.090Z,2.80
2018-08-20T14:43:40.063Z,2.43
2018-08-20T14:46:13.967Z,2.17
2018-08-20T14:48:42.111Z,2.57
2018-08-20T14:51:10.251Z,2.40
2018-08-20T14:53:38.417Z,2.80
2018-08-20T14:56:06.545Z,2.57
2018-08-20T14:58:34.785Z,2.60
2018-08-20T15:01:02.957Z,2.50
2018-08-20T15:03:31.473Z,5.40
2018-08-20T15:05:59.641Z,2.20
2018-08-20T15:08:27.755Z,2.43
2018-08-20T15:10:55.901Z,1.90
2018-08-20T15:13:24.017Z,2.57
2018-08-20T15:15:52.162Z,2.60
2018-08-20T15:18:20.392Z,2.20
2018-08-20T15:20:48.597Z,2.33
2018-08-20T15:23:16.751Z,2.53
2018-08-20T15:25:44.837Z,2.37
2018-08-20T15:28:12.928Z,1.60
2018-08-20T15:30:41.058Z,2.77
2018-08-20T15:33:09.208Z,1.90
2018-08-20T15:35:37.448Z,2.50
2018-08-20T15:38:05.621Z,2.53
2018-08-20T15:40:33.704Z,1.83
2018-08-20T15:43:01.791Z,2.90
2018-08-20T15:45:29.934Z,2.23
2018-08-20T15:47:58.074Z,2.40
2018-08-20T15:50:26.225Z,2.03
2018-08-20T15:52:54.703Z,2.40
2018-08-20T15:55:22.786Z,2.33
2018-08-20T15:57:50.913Z,2.10
2018-08-20T16:00:19.065Z,2.10
2018-08-20T16:02:47.201Z,2.10
2018-08-20T16:05:15.470Z,2.10
2018-08-20T16:07:43.677Z,2.10
2018-08-20T16:10:12.197Z,2.20
2018-08-20T16:12:41.172Z,2.03
2018-08-20T16:15:09.845Z,2.20
2018-08-20T16:17:38.239Z,1.80
2018-08-20T16:20:07.093Z,2.17
2018-08-20T16:22:35.447Z,2.00
2018-08-20T16:25:04.638Z,2.40
2018-08-20T16:27:33.025Z,2.20
2018-08-20T16:30:02.041Z,2.00
2018-08-20T16:32:30.141Z,2.20
2018-08-20T16:34:58.336Z,2.17
2018-08-20T16:37:26.645Z,1.80
2018-08-20T16:39:54.817Z,2.20
2018-08-20T16:42:22.920Z,2.00
2018-08-20T16:44:51.205Z,2.10
2018-08-20T16:47:19.301Z,1.80
2018-08-20T16:49:47.517Z,2.20
2018-08-20T16:52:16.564Z,1.83
2018-08-20T16:54:44.752Z,2.07
2018-08-20T16:57:12.951Z,2.00
2018-08-20T16:59:41.257Z,2.00
2018-08-20T17:02:14.957Z,2.30
2018-08-20T17:04:43.236Z,2.30
2018-08-20T17:07:11.743Z,1.70
2018-08-20T17:09:40.060Z,2.00
2018-08-20T17:12:08.911Z,1.70
2018-08-20T17:14:37.218Z,2.10
2018-08-20T17:17:05.711Z,2.40
2018-08-20T17:19:34.238Z,1.80
2018-08-20T17:22:02.640Z,2.60
2018-08-20T17:24:36.836Z,2.17
2018-08-20T17:27:05.197Z,2.27
2018-08-20T17:29:33.446Z,2.70
2018-08-20T17:32:03.051Z,2.40
2018-08-20T17:34:31.267Z,2.00
2018-08-20T17:36:59.644Z,2.10
2018-08-20T17:39:27.862Z,2.17
2018-08-20T17:41:56.688Z,2.40
2018-08-20T17:44:24.885Z,2.60
2018-08-20T17:46:53.056Z,2.47
2018-08-20T17:49:26.985Z,2.30
2018-08-20T17:51:55.132Z,2.33
2018-08-20T17:54:23.562Z,2.43
2018-08-20T17:56:51.664Z,2.60
2018-08-20T17:59:22.510Z,2.30
2018-08-20T18:01:50.832Z,2.40
2018-08-20T18:04:19.009Z,2.60
2018-08-20T18:06:55.330Z,2.90
2018-08-20T18:09:23.536Z,3.00
2018-08-20T18:11:52.858Z,2.70
2018-08-20T18:14:22.202Z,3.10
2018-08-20T18:16:50.519Z,3.50
2018-08-20T18:19:18.755Z,3.13
2018-08-20T18:21:47.275Z,2.50
2018-08-20T18:24:18.431Z,2.40
2018-08-20T18:26:48.095Z,2.27
2018-08-20T18:29:16.676Z,2.60
2018-08-20T18:31:44.933Z,2.30
2018-08-20T18:34:13.161Z,2.23
2018-08-20T18:36:41.425Z,2.83
2018-08-20T18:39:12.115Z,2.60
2018-08-20T18:42:15.059Z,2.70
2018-08-20T18:44:44.195Z,2.33
2018-08-20T18:47:13.855Z,2.70
2018-08-20T18:49:50.306Z,2.90
2018-08-20T18:52:20.341Z,2.07
2018-08-20T18:54:56.123Z,2.57
2018-08-20T18:57:27.535Z,2.57
2018-08-20T18:59:58.027Z,2.53
2018-08-20T19:02:55.885Z,2.00
2018-08-20T19:05:24.190Z,2.30
2018-08-20T19:07:52.470Z,2.20
2018-08-20T19:10:31.382Z,2.40
2018-08-20T19:13:00.396Z,2.20
2018-08-20T19:15:36.484Z,2.60
2018-08-20T19:18:06.888Z,2.30
2018-08-20T19:20:35.388Z,2.50
2018-08-20T19:23:03.626Z,2.40
2018-08-20T19:25:31.880Z,2.40
2018-08-20T19:28:05.914Z,2.20
2018-08-20T19:30:34.178Z,2.83
2018-08-20T19:33:04.136Z,2.57
2018-08-20T19:35:32.563Z,2.80
2018-08-20T19:38:00.909Z,2.20
2018-08-20T19:40:29.124Z,2.33
2018-08-20T19:42:57.256Z,3.03
2018-08-20T19:45:29.913Z,3.53
2018-08-20T19:47:58.116Z,3.60
2018-08-20T19:50:26.273Z,3.97
2018-08-20T19:52:54.585Z,4.40
2018-08-20T19:55:22.789Z,4.20
2018-08-20T19:57:51.255Z,4.00
2018-08-20T20:00:19.465Z,4.53
2018-08-20T20:02:47.633Z,4.73
2018-08-20T20:05:15.842Z,4.50
2018-08-20T20:07:55.685Z,4.50
2018-08-20T20:10:23.952Z,4.63
2018-08-20T20:12:54.716Z,4.67
2018-08-20T20:15:25.799Z,5.13
2018-08-20T20:17:55.333Z,4.47
2018-08-20T20:20:24.217Z,5.27
2018-08-20T20:22:52.815Z,4.20
2018-08-20T20:25:21.023Z,3.97
2018-08-20T20:27:50.647Z,4.00
2018-08-20T20:30:18.805Z,5.70
2018-08-20T20:32:46.984Z,4.70
2018-08-20T20:35:15.341Z,5.33
2018-08-20T20:37:43.499Z,4.70
2018-08-20T20:40:11.694Z,4.27
2018-08-20T20:42:40.552Z,3.60
2018-08-20T20:45:08.889Z,4.03
2018-08-20T20:47:37.217Z,5.43
2018-08-20T20:50:05.527Z,4.83
2018-08-20T20:52:33.683Z,4.37
2018-08-20T20:55:02.116Z,4.30
2018-08-20T20:57:30.298Z,4.20
2018-08-20T20:59:59.316Z,4.83
2018-08-20T21:02:27.557Z,5.30
2018-08-20T21:05:00.367Z,5.60
2018-08-20T21:07:32.724Z,5.20
2018-08-20T21:10:01.534Z,6.00
2018-08-20T21:12:30.766Z,5.13
2018-08-20T21:14:59.028Z,5.17
2018-08-20T21:17:27.296Z,5.77
2018-08-20T21:19:55.675Z,5.53
2018-08-20T21:22:24.022Z,4.57
2018-08-20T21:24:52.296Z,5.20
2018-08-20T21:27:27.475Z,5.00
2018-08-20T21:29:59.364Z,4.87
2018-08-20T21:32:27.848Z,4.07
2018-08-20T21:34:56.220Z,4.83
2018-08-20T21:37:24.460Z,5.07
2018-08-20T21:39:52.797Z,5.00
2018-08-20T21:42:33.098Z,4.80
2018-08-20T21:45:01.431Z,4.43
2018-08-20T21:47:30.688Z,4.73
2018-08-20T21:49:58.840Z,4.90
2018-08-20T21:52:27.010Z,4.83
2018-08-20T21:54:55.812Z,5.50
2018-08-20T21:57:24.206Z,5.60
2018-08-20T22:00:06.828Z,4.47
2018-08-20T22:02:35.324Z,4.80
2018-08-20T22:05:05.465Z,5.80
2018-08-20T22:07:35.712Z,4.23
2018-08-20T22:10:04.833Z,4.80
2018-08-20T22:12:32.972Z,5.67
2018-08-20T22:15:01.177Z,4.20
2018-08-20T22:17:30.410Z,4.03
2018-08-20T22:19:59.345Z,4.30
2018-08-20T22:22:27.874Z,3.40
2018-08-20T22:24:59.164Z,5.07
2018-08-20T22:27:28.620Z,4.77
2018-08-20T22:30:01.489Z,4.50
2018-08-20T22:32:30.221Z,4.37
2018-08-20T22:34:58.859Z,3.97
2018-08-20T22:37:27.157Z,4.20
2018-08-20T22:40:01.024Z,4.33
2018-08-20T22:42:45.435Z,3.70
2018-08-20T22:45:16.117Z,4.00
2018-08-20T22:47:46.361Z,4.17
2018-08-20T22:50:14.716Z,4.10
2018-08-20T22:52:47.853Z,4.00
2018-08-20T22:55:17.661Z,5.00
2018-08-20T22:58:05.117Z,4.67
2018-08-20T23:00:33.632Z,5.00
2018-08-20T23:03:01.821Z,4.53
2018-08-20T23:05:31.531Z,5.00
2018-08-20T23:08:11.570Z,3.90
2018-08-20T23:10:42.225Z,4.70
2018-08-20T23:13:10.511Z,5.57
2018-08-20T23:15:38.879Z,5.53
2018-08-20T23:18:07.487Z,4.00
2018-08-20T23:20:35.767Z,3.70
2018-08-20T23:23:04.175Z,3.73
2018-08-20T23:25:32.398Z,4.27
2018-08-20T23:28:00.633Z,5.20
2018-08-20T23:30:28.804Z,5.03
2018-08-20T23:32:57.692Z,4.40
2018-08-20T23:35:25.937Z,4.40
2018-08-20T23:37:54.186Z,4.40
2018-08-20T23:40:22.547Z,4.07
2018-08-20T23:42:50.944Z,3.90
2018-08-20T23:45:19.164Z,4.20
2018-08-20T23:47:47.559Z,4.40
2018-08-20T23:50:15.735Z,5.17
2018-08-20T23:52:43.878Z,4.30
2018-08-20T23:55:12.012Z,5.67
2018-08-20T23:57:40.377Z,4.87
